sensor_id;sensor_type;location;lat;lon;timestamp;P1;durP1;ratioP1;P2;durP2;ratioP2
20287;SDS011;10303;51.960;8.372;2022-09-12T00:00:10;3.00;;;2.80;;
20287;SDS011;10303;51.960;8.372;2022-09-12T00:02:37;2.63;;;2.40;;
20287;SDS011;10303;51.960;8.372;2022-09-12T00:05:03;3.30;;;3.00;;
20287;SDS011;10303;51.960;8.372;2022-09-12T00:07:31;3.00;;;2.80;;
20287;SDS011;10303;51.960;8.372;2022-09-12T00:09:58;3.23;;;2.97;;
20287;SDS011;10303;51.960;8.372;2022-09-12T00:12:27;3.33;;;3.03;;
20287;SDS011;10303;51.960;8.372;2022-09-12T00:14:53;3.93;;;2.90;;
20287;SDS011;10303;51.960;8.372;2022-09-12T00:17:19;2.93;;;2.60;;
20287;SDS011;10303;51.960;8.372;2022-09-12T00:19:45;3.20;;;2.90;;
20287;SDS011;10303;51.960;8.372;2022-09-12T00:22:11;2.80;;;2.60;;
20287;SDS011;10303;51.960;8.372;2022-09-12T00:24:37;2.83;;;2.63;;
20287;SDS011;10303;51.960;8.372;2022-09-12T00:27:05;3.30;;;3.10;;
20287;SDS011;10303;51.960;8.372;2022-09-12T00:29:31;3.83;;;2.93;;
20287;SDS011;10303;51.960;8.372;2022-09-12T00:31:57;3.27;;;2.87;;
20287;SDS011;10303;51.960;8.372;2022-09-12T00:34:23;3.07;;;2.77;;
20287;SDS011;10303;51.960;8.372;2022-09-12T00:36:49;2.77;;;2.57;;
20287;SDS011;10303;51.960;8.372;2022-09-12T00:39:15;3.10;;;2.80;;
20287;SDS011;10303;51.960;8.372;2022-09-12T00:41:42;2.80;;;2.57;;
20287;SDS011;10303;51.960;8.372;2022-09-12T00:52:12;2.80;;;2.50;;
20287;SDS011;10303;51.960;8.372;2022-09-12T00:54:50;3.03;;;2.73;;
20287;SDS011;10303;51.960;8.372;2022-09-12T00:58:00;3.03;;;2.83;;
20287;SDS011;10303;51.960;8.372;2022-09-12T01:00:33;3.13;;;2.70;;
20287;SDS011;10303;51.960;8.372;2022-09-12T01:03:00;2.67;;;2.47;;
20287;SDS011;10303;51.960;8.372;2022-09-12T01:05:34;2.73;;;2.53;;
20287;SDS011;10303;51.960;8.372;2022-09-12T01:08:05;2.80;;;2.60;;
20287;SDS011;10303;51.960;8.372;2022-09-12T01:10:33;4.43;;;3.10;;
20287;SDS011;10303;51.960;8.372;2022-09-12T01:13:03;2.70;;;2.50;;
20287;SDS011;10303;51.960;8.372;2022-09-12T01:15:36;3.00;;;2.73;;
20287;SDS011;10303;51.960;8.372;2022-09-12T01:18:19;2.77;;;2.43;;
20287;SDS011;10303;51.960;8.372;2022-09-12T01:26:42;2.50;;;2.30;;
20287;SDS011;10303;51.960;8.372;2022-09-12T01:29:51;2.83;;;2.60;;
20287;SDS011;10303;51.960;8.372;2022-09-12T01:35:24;2.43;;;2.23;;
20287;SDS011;10303;51.960;8.372;2022-09-12T01:38:14;2.83;;;2.37;;
20287;SDS011;10303;51.960;8.372;2022-09-12T01:40:58;2.53;;;2.33;;
20287;SDS011;10303;51.960;8.372;2022-09-12T01:43:38;2.93;;;2.63;;
20287;SDS011;10303;51.960;8.372;2022-09-12T01:46:18;2.37;;;2.17;;
20287;SDS011;10303;51.960;8.372;2022-09-12T01:49:11;2.67;;;2.07;;
20287;SDS011;10303;51.960;8.372;2022-09-12T01:51:50;2.43;;;2.23;;
20287;SDS011;10303;51.960;8.372;2022-09-12T01:54:37;1.90;;;1.80;;
20287;SDS011;10303;51.960;8.372;2022-09-12T01:57:13;3.23;;;2.50;;
20287;SDS011;10303;51.960;8.372;2022-09-12T01:59:50;2.57;;;2.37;;
20287;SDS011;10303;51.960;8.372;2022-09-12T02:02:24;2.93;;;2.73;;
20287;SDS011;10303;51.960;8.372;2022-09-12T02:05:01;2.10;;;2.00;;
20287;SDS011;10303;51.960;8.372;2022-09-12T02:07:52;2.37;;;2.17;;
20287;SDS011;10303;51.960;8.372;2022-09-12T02:10:37;2.40;;;2.20;;
20287;SDS011;10303;51.960;8.372;2022-09-12T02:13:21;2.30;;;2.10;;
20287;SDS011;10303;51.960;8.372;2022-09-12T02:16:00;2.03;;;1.93;;
20287;SDS011;10303;51.960;8.372;2022-09-12T02:18:35;2.57;;;2.37;;
20287;SDS011;10303;51.960;8.372;2022-09-12T02:21:06;2.60;;;2.40;;
20287;SDS011;10303;51.960;8.372;2022-09-12T02:23:33;2.00;;;1.90;;
20287;SDS011;10303;51.960;8.372;2022-09-12T02:26:09;1.90;;;1.80;;
20287;SDS011;10303;51.960;8.372;2022-09-12T02:28:46;1.80;;;1.70;;
20287;SDS011;10303;51.960;8.372;2022-09-12T02:31:14;2.70;;;2.30;;
20287;SDS011;10303;51.960;8.372;2022-09-12T02:36:31;2.07;;;1.70;;
20287;SDS011;10303;51.960;8.372;2022-09-12T02:39:35;2.10;;;1.90;;
20287;SDS011;10303;51.960;8.372;2022-09-12T02:42:01;1.60;;;1.50;;
20287;SDS011;10303;51.960;8.372;2022-09-12T02:44:28;2.13;;;1.93;;
20287;SDS011;10303;51.960;8.372;2022-09-12T02:47:00;1.80;;;1.70;;
20287;SDS011;10303;51.960;8.372;2022-09-12T02:49:33;2.73;;;2.53;;
20287;SDS011;10303;51.960;8.372;2022-09-12T02:51:59;4.20;;;2.37;;
20287;SDS011;10303;51.960;8.372;2022-09-12T02:54:26;2.23;;;2.03;;
20287;SDS011;10303;51.960;8.372;2022-09-12T02:56:54;2.40;;;1.83;;
20287;SDS011;10303;51.960;8.372;2022-09-12T02:59:20;2.50;;;2.20;;
20287;SDS011;10303;51.960;8.372;2022-09-12T03:08:23;1.77;;;1.67;;
20287;SDS011;10303;51.960;8.372;2022-09-12T03:22:30;2.57;;;2.37;;
20287;SDS011;10303;51.960;8.372;2022-09-12T03:28:05;1.70;;;1.60;;
20287;SDS011;10303;51.960;8.372;2022-09-12T03:30:39;1.70;;;1.60;;
20287;SDS011;10303;51.960;8.372;2022-09-12T03:33:12;4.00;;;1.90;;
20287;SDS011;10303;51.960;8.372;2022-09-12T03:35:41;1.90;;;1.80;;
20287;SDS011;10303;51.960;8.372;2022-09-12T03:38:10;2.23;;;2.00;;
20287;SDS011;10303;51.960;8.372;2022-09-12T03:40:36;2.20;;;2.00;;
20287;SDS011;10303;51.960;8.372;2022-09-12T03:43:03;4.67;;;2.43;;
20287;SDS011;10303;51.960;8.372;2022-09-12T03:45:32;2.43;;;2.23;;
20287;SDS011;10303;51.960;8.372;2022-09-12T03:47:58;2.10;;;1.80;;
20287;SDS011;10303;51.960;8.372;2022-09-12T03:50:24;2.57;;;2.07;;
20287;SDS011;10303;51.960;8.372;2022-09-12T03:52:50;1.87;;;1.63;;
20287;SDS011;10303;51.960;8.372;2022-09-12T03:55:16;2.80;;;2.10;;
20287;SDS011;10303;51.960;8.372;2022-09-12T03:57:42;2.33;;;2.13;;
20287;SDS011;10303;51.960;8.372;2022-09-12T04:00:09;1.90;;;1.70;;
20287;SDS011;10303;51.960;8.372;2022-09-12T04:02:40;2.20;;;2.00;;
20287;SDS011;10303;51.960;8.372;2022-09-12T04:05:06;2.17;;;1.97;;
20287;SDS011;10303;51.960;8.372;2022-09-12T04:07:32;1.90;;;1.77;;
20287;SDS011;10303;51.960;8.372;2022-09-12T04:09:58;2.27;;;2.03;;
20287;SDS011;10303;51.960;8.372;2022-09-12T04:12:24;4.63;;;2.40;;
20287;SDS011;10303;51.960;8.372;2022-09-12T04:14:50;2.13;;;1.90;;
20287;SDS011;10303;51.960;8.372;2022-09-12T04:17:16;2.03;;;1.87;;
20287;SDS011;10303;51.960;8.372;2022-09-12T04:19:42;3.17;;;1.60;;
20287;SDS011;10303;51.960;8.372;2022-09-12T04:22:08;1.83;;;1.67;;
20287;SDS011;10303;51.960;8.372;2022-09-12T04:24:34;2.43;;;2.23;;
20287;SDS011;10303;51.960;8.372;2022-09-12T04:27:00;2.30;;;2.00;;
20287;SDS011;10303;51.960;8.372;2022-09-12T04:29:25;3.23;;;2.73;;
20287;SDS011;10303;51.960;8.372;2022-09-12T04:31:52;2.80;;;2.60;;
20287;SDS011;10303;51.960;8.372;2022-09-12T04:34:17;2.77;;;2.57;;
20287;SDS011;10303;51.960;8.372;2022-09-12T04:36:43;2.70;;;2.30;;
20287;SDS011;10303;51.960;8.372;2022-09-12T04:39:09;2.97;;;2.60;;
20287;SDS011;10303;51.960;8.372;2022-09-12T04:41:39;2.80;;;2.50;;
20287;SDS011;10303;51.960;8.372;2022-09-12T04:44:12;2.53;;;2.33;;
20287;SDS011;10303;51.960;8.372;2022-09-12T04:46:40;2.83;;;2.47;;
20287;SDS011;10303;51.960;8.372;2022-09-12T04:49:10;2.40;;;2.20;;
20287;SDS011;10303;51.960;8.372;2022-09-12T04:51:39;2.60;;;2.40;;
20287;SDS011;10303;51.960;8.372;2022-09-12T04:54:09;2.33;;;2.13;;
20287;SDS011;10303;51.960;8.372;2022-09-12T04:56:41;2.47;;;2.20;;
20287;SDS011;10303;51.960;8.372;2022-09-12T04:59:11;2.33;;;2.13;;
20287;SDS011;10303;51.960;8.372;2022-09-12T05:01:40;2.33;;;2.13;;
20287;SDS011;10303;51.960;8.372;2022-09-12T05:04:08;2.23;;;1.77;;
20287;SDS011;10303;51.960;8.372;2022-09-12T05:06:36;2.60;;;2.33;;
20287;SDS011;10303;51.960;8.372;2022-09-12T05:09:03;2.17;;;2.00;;
20287;SDS011;10303;51.960;8.372;2022-09-12T05:11:33;4.80;;;2.47;;
20287;SDS011;10303;51.960;8.372;2022-09-12T05:14:02;3.73;;;3.27;;
20287;SDS011;10303;51.960;8.372;2022-09-12T05:16:28;2.27;;;2.07;;
20287;SDS011;10303;51.960;8.372;2022-09-12T05:18:58;2.80;;;2.30;;
20287;SDS011;10303;51.960;8.372;2022-09-12T05:21:24;2.27;;;2.07;;
20287;SDS011;10303;51.960;8.372;2022-09-12T05:23:55;2.30;;;2.10;;
20287;SDS011;10303;51.960;8.372;2022-09-12T05:26:24;2.27;;;1.57;;
20287;SDS011;10303;51.960;8.372;2022-09-12T05:28:51;1.57;;;1.47;;
20287;SDS011;10303;51.960;8.372;2022-09-12T05:31:22;1.87;;;1.70;;
20287;SDS011;10303;51.960;8.372;2022-09-12T05:33:51;2.17;;;1.97;;
20287;SDS011;10303;51.960;8.372;2022-09-12T05:36:27;1.53;;;1.43;;
20287;SDS011;10303;51.960;8.372;2022-09-12T05:38:54;1.57;;;1.47;;
20287;SDS011;10303;51.960;8.372;2022-09-12T05:41:22;2.20;;;0.97;;
20287;SDS011;10303;51.960;8.372;2022-09-12T05:43:54;2.17;;;1.70;;
20287;SDS011;10303;51.960;8.372;2022-09-12T05:46:25;3.87;;;1.83;;
20287;SDS011;10303;51.960;8.372;2022-09-12T05:48:54;3.53;;;2.13;;
20287;SDS011;10303;51.960;8.372;2022-09-12T05:51:22;2.10;;;1.93;;
20287;SDS011;10303;51.960;8.372;2022-09-12T05:53:52;2.53;;;2.33;;
20287;SDS011;10303;51.960;8.372;2022-09-12T05:56:22;2.57;;;2.37;;
20287;SDS011;10303;51.960;8.372;2022-09-12T05:58:58;2.90;;;2.43;;
20287;SDS011;10303;51.960;8.372;2022-09-12T06:01:26;2.43;;;2.23;;
20287;SDS011;10303;51.960;8.372;2022-09-12T06:03:55;2.53;;;2.33;;
20287;SDS011;10303;51.960;8.372;2022-09-12T06:06:25;4.47;;;3.07;;
20287;SDS011;10303;51.960;8.372;2022-09-12T06:08:54;5.07;;;3.40;;
20287;SDS011;10303;51.960;8.372;2022-09-12T06:11:25;3.67;;;3.37;;
20287;SDS011;10303;51.960;8.372;2022-09-12T06:13:55;4.00;;;3.30;;
20287;SDS011;10303;51.960;8.372;2022-09-12T06:16:23;3.23;;;2.97;;
20287;SDS011;10303;51.960;8.372;2022-09-12T06:18:54;3.60;;;3.20;;
20287;SDS011;10303;51.960;8.372;2022-09-12T06:21:31;3.10;;;2.80;;
20287;SDS011;10303;51.960;8.372;2022-09-12T06:24:02;3.50;;;3.20;;
20287;SDS011;10303;51.960;8.372;2022-09-12T06:26:28;3.90;;;3.30;;
20287;SDS011;10303;51.960;8.372;2022-09-12T06:28:55;3.10;;;2.60;;
20287;SDS011;10303;51.960;8.372;2022-09-12T06:31:26;3.03;;;2.73;;
20287;SDS011;10303;51.960;8.372;2022-09-12T06:33:59;2.80;;;2.13;;
20287;SDS011;10303;51.960;8.372;2022-09-12T06:36:30;2.80;;;2.60;;
20287;SDS011;10303;51.960;8.372;2022-09-12T06:39:04;2.97;;;2.77;;
20287;SDS011;10303;51.960;8.372;2022-09-12T06:41:42;3.70;;;2.83;;
20287;SDS011;10303;51.960;8.372;2022-09-12T06:44:12;3.13;;;2.83;;
20287;SDS011;10303;51.960;8.372;2022-09-12T06:46:40;3.50;;;3.20;;
20287;SDS011;10303;51.960;8.372;2022-09-12T06:49:07;3.27;;;2.80;;
20287;SDS011;10303;51.960;8.372;2022-09-12T06:51:33;5.40;;;3.87;;
20287;SDS011;10303;51.960;8.372;2022-09-12T06:54:00;4.93;;;3.83;;
20287;SDS011;10303;51.960;8.372;2022-09-12T06:56:27;4.00;;;3.70;;
20287;SDS011;10303;51.960;8.372;2022-09-12T06:58:54;4.07;;;3.67;;
20287;SDS011;10303;51.960;8.372;2022-09-12T07:01:24;4.30;;;3.80;;
20287;SDS011;10303;51.960;8.372;2022-09-12T07:03:53;3.97;;;3.57;;
20287;SDS011;10303;51.960;8.372;2022-09-12T07:06:24;4.13;;;3.70;;
20287;SDS011;10303;51.960;8.372;2022-09-12T07:08:56;5.13;;;4.13;;
20287;SDS011;10303;51.960;8.372;2022-09-12T07:11:25;4.37;;;3.27;;
20287;SDS011;10303;51.960;8.372;2022-09-12T07:13:56;4.77;;;4.30;;
20287;SDS011;10303;51.960;8.372;2022-09-12T07:16:24;6.00;;;3.40;;
20287;SDS011;10303;51.960;8.372;2022-09-12T07:18:51;3.30;;;3.00;;
20287;SDS011;10303;51.960;8.372;2022-09-12T07:21:20;5.03;;;4.43;;
20287;SDS011;10303;51.960;8.372;2022-09-12T07:23:47;5.90;;;4.30;;
20287;SDS011;10303;51.960;8.372;2022-09-12T07:26:14;5.07;;;3.90;;
20287;SDS011;10303;51.960;8.372;2022-09-12T07:28:40;3.50;;;3.20;;
20287;SDS011;10303;51.960;8.372;2022-09-12T07:31:11;3.77;;;3.17;;
20287;SDS011;10303;51.960;8.372;2022-09-12T07:33:40;3.43;;;3.10;;
20287;SDS011;10303;51.960;8.372;2022-09-12T07:36:09;3.77;;;3.37;;
20287;SDS011;10303;51.960;8.372;2022-09-12T07:38:39;3.40;;;3.10;;
20287;SDS011;10303;51.960;8.372;2022-09-12T07:41:10;4.17;;;3.57;;
20287;SDS011;10303;51.960;8.372;2022-09-12T07:43:52;5.13;;;3.80;;
20287;SDS011;10303;51.960;8.372;2022-09-12T07:46:23;7.63;;;4.83;;
20287;SDS011;10303;51.960;8.372;2022-09-12T07:48:51;4.37;;;3.97;;
20287;SDS011;10303;51.960;8.372;2022-09-12T07:51:20;4.20;;;3.83;;
20287;SDS011;10303;51.960;8.372;2022-09-12T07:53:47;3.73;;;3.30;;
20287;SDS011;10303;51.960;8.372;2022-09-12T07:56:14;5.23;;;3.17;;
20287;SDS011;10303;51.960;8.372;2022-09-12T07:58:41;3.60;;;3.30;;
20287;SDS011;10303;51.960;8.372;2022-09-12T08:01:09;4.07;;;3.50;;
20287;SDS011;10303;51.960;8.372;2022-09-12T08:03:45;4.37;;;3.97;;
20287;SDS011;10303;51.960;8.372;2022-09-12T08:06:20;4.70;;;4.20;;
20287;SDS011;10303;51.960;8.372;2022-09-12T08:08:48;4.40;;;3.33;;
20287;SDS011;10303;51.960;8.372;2022-09-12T08:11:17;4.47;;;4.00;;
20287;SDS011;10303;51.960;8.372;2022-09-12T08:13:46;3.43;;;3.13;;
20287;SDS011;10303;51.960;8.372;2022-09-12T08:16:18;3.70;;;3.40;;
20287;SDS011;10303;51.960;8.372;2022-09-12T08:18:46;7.37;;;3.73;;
20287;SDS011;10303;51.960;8.372;2022-09-12T08:21:25;4.87;;;3.13;;
20287;SDS011;10303;51.960;8.372;2022-09-12T08:24:06;2.97;;;2.67;;
20287;SDS011;10303;51.960;8.372;2022-09-12T08:26:33;3.47;;;3.20;;
20287;SDS011;10303;51.960;8.372;2022-09-12T08:29:00;3.17;;;2.87;;
20287;SDS011;10303;51.960;8.372;2022-09-12T08:31:26;4.28;;;3.97;;
20287;SDS011;10303;51.960;8.372;2022-09-12T08:33:56;3.63;;;3.33;;
20287;SDS011;10303;51.960;8.372;2022-09-12T08:36:23;3.28;;;2.97;;
20287;SDS011;10303;51.960;8.372;2022-09-12T08:38:55;3.47;;;3.17;;
20287;SDS011;10303;51.960;8.372;2022-09-12T08:41:29;5.32;;;3.90;;
20287;SDS011;10303;51.960;8.372;2022-09-12T08:55:48;5.78;;;3.70;;
20287;SDS011;10303;51.960;8.372;2022-09-12T08:58:23;3.38;;;2.88;;
20287;SDS011;10303;51.960;8.372;2022-09-12T09:01:06;5.25;;;4.20;;
20287;SDS011;10303;51.960;8.372;2022-09-12T09:07:06;5.03;;;2.92;;
20287;SDS011;10303;51.960;8.372;2022-09-12T09:09:58;2.60;;;2.40;;
20287;SDS011;10303;51.960;8.372;2022-09-12T09:12:52;3.47;;;3.17;;
20287;SDS011;10303;51.960;8.372;2022-09-12T09:19:02;4.20;;;3.53;;
20287;SDS011;10303;51.960;8.372;2022-09-12T09:24:15;4.07;;;3.15;;
20287;SDS011;10303;51.960;8.372;2022-09-12T09:26:48;5.93;;;4.43;;
20287;SDS011;10303;51.960;8.372;2022-09-12T09:29:35;3.28;;;3.08;;
20287;SDS011;10303;51.960;8.372;2022-09-12T09:32:25;4.00;;;3.55;;
20287;SDS011;10303;51.960;8.372;2022-09-12T09:35:14;3.75;;;3.40;;
20287;SDS011;10303;51.960;8.372;2022-09-12T09:37:51;4.57;;;4.15;;
20287;SDS011;10303;51.960;8.372;2022-09-12T09:40:44;6.25;;;4.00;;
20287;SDS011;10303;51.960;8.372;2022-09-12T09:44:01;5.28;;;3.70;;
20287;SDS011;10303;51.960;8.372;2022-09-12T09:46:30;3.75;;;3.45;;
20287;SDS011;10303;51.960;8.372;2022-09-12T09:48:57;3.72;;;3.42;;
20287;SDS011;10303;51.960;8.372;2022-09-12T09:51:33;4.25;;;3.95;;
20287;SDS011;10303;51.960;8.372;2022-09-12T09:54:12;6.20;;;4.68;;
20287;SDS011;10303;51.960;8.372;2022-09-12T09:56:52;5.70;;;4.50;;
20287;SDS011;10303;51.960;8.372;2022-09-12T10:01:59;4.97;;;3.95;;
20287;SDS011;10303;51.960;8.372;2022-09-12T10:04:54;3.83;;;3.47;;
20287;SDS011;10303;51.960;8.372;2022-09-12T10:07:23;6.25;;;4.45;;
20287;SDS011;10303;51.960;8.372;2022-09-12T10:12:38;3.85;;;3.33;;
20287;SDS011;10303;51.960;8.372;2022-09-12T10:15:24;4.93;;;3.58;;
20287;SDS011;10303;51.960;8.372;2022-09-12T10:17:51;3.38;;;3.03;;
20287;SDS011;10303;51.960;8.372;2022-09-12T10:20:32;3.67;;;2.80;;
20287;SDS011;10303;51.960;8.372;2022-09-12T10:23:33;4.05;;;3.15;;
20287;SDS011;10303;51.960;8.372;2022-09-12T10:26:07;3.75;;;3.15;;
20287;SDS011;10303;51.960;8.372;2022-09-12T10:28:44;3.97;;;3.60;;
20287;SDS011;10303;51.960;8.372;2022-09-12T10:31:25;8.25;;;4.22;;
20287;SDS011;10303;51.960;8.372;2022-09-12T10:33:59;4.00;;;3.60;;
20287;SDS011;10303;51.960;8.372;2022-09-12T10:36:33;4.40;;;3.22;;
20287;SDS011;10303;51.960;8.372;2022-09-12T10:39:04;4.03;;;3.63;;
20287;SDS011;10303;51.960;8.372;2022-09-12T10:41:35;5.07;;;4.63;;
20287;SDS011;10303;51.960;8.372;2022-09-12T10:44:06;4.22;;;3.83;;
20287;SDS011;10303;51.960;8.372;2022-09-12T10:46:50;3.38;;;3.08;;
20287;SDS011;10303;51.960;8.372;2022-09-12T10:52:16;3.47;;;3.17;;
20287;SDS011;10303;51.960;8.372;2022-09-12T10:54:48;3.33;;;3.03;;
20287;SDS011;10303;51.960;8.372;2022-09-12T11:00:24;3.90;;;3.50;;
20287;SDS011;10303;51.960;8.372;2022-09-12T11:06:14;4.45;;;4.05;;
20287;SDS011;10303;51.960;8.372;2022-09-12T11:20:50;4.90;;;4.15;;
20287;SDS011;10303;51.960;8.372;2022-09-12T11:26:40;3.55;;;3.25;;
20287;SDS011;10303;51.960;8.372;2022-09-12T11:29:25;6.32;;;4.03;;
20287;SDS011;10303;51.960;8.372;2022-09-12T11:35:24;4.65;;;3.22;;
20287;SDS011;10303;51.960;8.372;2022-09-12T11:40:36;3.50;;;3.20;;
20287;SDS011;10303;51.960;8.372;2022-09-12T11:43:19;2.95;;;2.65;;
20287;SDS011;10303;51.960;8.372;2022-09-12T11:46:22;3.33;;;2.85;;
20287;SDS011;10303;51.960;8.372;2022-09-12T11:54:29;4.18;;;3.80;;
20287;SDS011;10303;51.960;8.372;2022-09-12T11:57:26;4.00;;;3.70;;
20287;SDS011;10303;51.960;8.372;2022-09-12T12:08:48;3.88;;;3.38;;
20287;SDS011;10303;51.960;8.372;2022-09-12T12:14:30;2.63;;;2.42;;
20287;SDS011;10303;51.960;8.372;2022-09-12T12:20:29;2.80;;;2.60;;
20287;SDS011;10303;51.960;8.372;2022-09-12T12:22:59;2.80;;;2.58;;
20287;SDS011;10303;51.960;8.372;2022-09-12T12:25:36;2.42;;;2.22;;
20287;SDS011;10303;51.960;8.372;2022-09-12T12:31:13;2.72;;;2.33;;
20287;SDS011;10303;51.960;8.372;2022-09-12T12:41:58;2.55;;;2.35;;
20287;SDS011;10303;51.960;8.372;2022-09-12T12:47:14;5.22;;;2.58;;
20287;SDS011;10303;51.960;8.372;2022-09-12T12:50:11;2.50;;;2.30;;
20287;SDS011;10303;51.960;8.372;2022-09-12T12:53:04;5.35;;;2.78;;
20287;SDS011;10303;51.960;8.372;2022-09-12T12:58:59;2.42;;;2.22;;
20287;SDS011;10303;51.960;8.372;2022-09-12T13:02:01;4.68;;;2.30;;
20287;SDS011;10303;51.960;8.372;2022-09-12T13:04:29;2.55;;;2.40;;
20287;SDS011;10303;51.960;8.372;2022-09-12T13:07:02;2.28;;;2.17;;
20287;SDS011;10303;51.960;8.372;2022-09-12T13:09:36;2.10;;;1.98;;
20287;SDS011;10303;51.960;8.372;2022-09-12T13:12:11;2.70;;;2.50;;
20287;SDS011;10303;51.960;8.372;2022-09-12T13:14:59;2.70;;;1.92;;
20287;SDS011;10303;51.960;8.372;2022-09-12T13:17:49;1.77;;;1.67;;
20287;SDS011;10303;51.960;8.372;2022-09-12T13:22:56;2.20;;;1.95;;
20287;SDS011;10303;51.960;8.372;2022-09-12T13:25:29;2.60;;;2.28;;
20287;SDS011;10303;51.960;8.372;2022-09-12T13:30:36;2.92;;;2.72;;
20287;SDS011;10303;51.960;8.372;2022-09-12T13:33:36;2.50;;;2.38;;
20287;SDS011;10303;51.960;8.372;2022-09-12T13:39:47;1.85;;;1.75;;
20287;SDS011;10303;51.960;8.372;2022-09-12T13:42:27;2.20;;;2.03;;
20287;SDS011;10303;51.960;8.372;2022-09-12T13:47:55;1.95;;;1.85;;
20287;SDS011;10303;51.960;8.372;2022-09-12T13:50:31;2.15;;;2.05;;
20287;SDS011;10303;51.960;8.372;2022-09-12T13:53:32;2.10;;;1.90;;
20287;SDS011;10303;51.960;8.372;2022-09-12T13:56:20;2.45;;;2.25;;
20287;SDS011;10303;51.960;8.372;2022-09-12T13:58:50;2.55;;;2.35;;
20287;SDS011;10303;51.960;8.372;2022-09-12T14:04:36;1.60;;;1.50;;
20287;SDS011;10303;51.960;8.372;2022-09-12T14:07:22;2.05;;;1.85;;
20287;SDS011;10303;51.960;8.372;2022-09-12T14:09:54;1.90;;;1.80;;
20287;SDS011;10303;51.960;8.372;2022-09-12T14:12:25;2.50;;;2.30;;
20287;SDS011;10303;51.960;8.372;2022-09-12T14:14:54;1.95;;;1.83;;
20287;SDS011;10303;51.960;8.372;2022-09-12T14:17:31;1.63;;;1.52;;
20287;SDS011;10303;51.960;8.372;2022-09-12T14:22:53;2.63;;;2.10;;
20287;SDS011;10303;51.960;8.372;2022-09-12T14:25:20;1.98;;;1.88;;
20287;SDS011;10303;51.960;8.372;2022-09-12T14:27:54;2.38;;;1.90;;
20287;SDS011;10303;51.960;8.372;2022-09-12T14:33:48;1.60;;;1.50;;
20287;SDS011;10303;51.960;8.372;2022-09-12T14:36:48;1.58;;;1.48;;
20287;SDS011;10303;51.960;8.372;2022-09-12T14:39:18;3.05;;;1.98;;
20287;SDS011;10303;51.960;8.372;2022-09-12T14:42:29;1.63;;;1.52;;
20287;SDS011;10303;51.960;8.372;2022-09-12T14:44:56;2.67;;;1.95;;
20287;SDS011;10303;51.960;8.372;2022-09-12T15:10:40;2.72;;;2.53;;
20287;SDS011;10303;51.960;8.372;2022-09-12T15:15:49;15.63;;;11.88;;
20287;SDS011;10303;51.960;8.372;2022-09-12T15:18:23;5.53;;;4.90;;
20287;SDS011;10303;51.960;8.372;2022-09-12T15:20:53;2.53;;;2.33;;
20287;SDS011;10303;51.960;8.372;2022-09-12T15:23:44;1.73;;;1.63;;
20287;SDS011;10303;51.960;8.372;2022-09-12T15:26:18;1.70;;;1.60;;
20287;SDS011;10303;51.960;8.372;2022-09-12T15:28:54;1.98;;;1.88;;
20287;SDS011;10303;51.960;8.372;2022-09-12T15:31:25;1.77;;;1.67;;
20287;SDS011;10303;51.960;8.372;2022-09-12T15:33:56;1.33;;;1.23;;
20287;SDS011;10303;51.960;8.372;2022-09-12T15:36:25;1.83;;;1.30;;
20287;SDS011;10303;51.960;8.372;2022-09-12T15:38:55;1.70;;;1.60;;
20287;SDS011;10303;51.960;8.372;2022-09-12T15:41:27;2.08;;;1.80;;
20287;SDS011;10303;51.960;8.372;2022-09-12T15:44:06;1.73;;;1.58;;
20287;SDS011;10303;51.960;8.372;2022-09-12T15:46:36;1.90;;;1.80;;
20287;SDS011;10303;51.960;8.372;2022-09-12T15:49:03;3.00;;;1.40;;
20287;SDS011;10303;51.960;8.372;2022-09-12T15:51:32;1.58;;;1.48;;
20287;SDS011;10303;51.960;8.372;2022-09-12T15:53:59;1.75;;;1.65;;
20287;SDS011;10303;51.960;8.372;2022-09-12T15:59:19;3.03;;;1.20;;
20287;SDS011;10303;51.960;8.372;2022-09-12T16:01:58;1.60;;;1.50;;
20287;SDS011;10303;51.960;8.372;2022-09-12T16:04:26;1.50;;;1.40;;
20287;SDS011;10303;51.960;8.372;2022-09-12T16:06:54;1.55;;;1.45;;
20287;SDS011;10303;51.960;8.372;2022-09-12T16:09:22;1.27;;;1.17;;
20287;SDS011;10303;51.960;8.372;2022-09-12T16:11:56;1.45;;;1.20;;
20287;SDS011;10303;51.960;8.372;2022-09-12T16:14:23;1.50;;;1.40;;
20287;SDS011;10303;51.960;8.372;2022-09-12T16:16:52;1.77;;;1.67;;
20287;SDS011;10303;51.960;8.372;2022-09-12T16:19:19;2.13;;;1.70;;
20287;SDS011;10303;51.960;8.372;2022-09-12T16:21:46;1.70;;;1.40;;
20287;SDS011;10303;51.960;8.372;2022-09-12T16:24:13;1.50;;;1.40;;
20287;SDS011;10303;51.960;8.372;2022-09-12T16:26:40;1.48;;;1.38;;
20287;SDS011;10303;51.960;8.372;2022-09-12T16:29:06;1.40;;;1.30;;
20287;SDS011;10303;51.960;8.372;2022-09-12T16:31:37;1.42;;;1.33;;
20287;SDS011;10303;51.960;8.372;2022-09-12T16:34:06;1.30;;;1.20;;
20287;SDS011;10303;51.960;8.372;2022-09-12T16:36:33;1.40;;;1.30;;
20287;SDS011;10303;51.960;8.372;2022-09-12T16:38:59;1.58;;;1.23;;
20287;SDS011;10303;51.960;8.372;2022-09-12T16:41:28;1.45;;;1.35;;
20287;SDS011;10303;51.960;8.372;2022-09-12T16:43:55;1.80;;;1.45;;
20287;SDS011;10303;51.960;8.372;2022-09-12T16:46:22;1.88;;;1.58;;
20287;SDS011;10303;51.960;8.372;2022-09-12T16:48:55;1.55;;;1.45;;
20287;SDS011;10303;51.960;8.372;2022-09-12T16:51:26;1.88;;;1.77;;
20287;SDS011;10303;51.960;8.372;2022-09-12T16:53:57;1.60;;;1.50;;
20287;SDS011;10303;51.960;8.372;2022-09-12T16:56:33;4.70;;;1.60;;
20287;SDS011;10303;51.960;8.372;2022-09-12T16:59:01;1.40;;;1.30;;
20287;SDS011;10303;51.960;8.372;2022-09-12T17:01:29;1.35;;;1.27;;
20287;SDS011;10303;51.960;8.372;2022-09-12T17:03:56;1.45;;;1.35;;
20287;SDS011;10303;51.960;8.372;2022-09-12T17:06:23;1.58;;;1.48;;
20287;SDS011;10303;51.960;8.372;2022-09-12T17:08:52;1.83;;;1.73;;
20287;SDS011;10303;51.960;8.372;2022-09-12T17:11:24;1.92;;;1.40;;
20287;SDS011;10303;51.960;8.372;2022-09-12T17:13:55;1.65;;;1.55;;
20287;SDS011;10303;51.960;8.372;2022-09-12T17:16:23;1.30;;;1.20;;
20287;SDS011;10303;51.960;8.372;2022-09-12T17:18:51;1.52;;;1.42;;
20287;SDS011;10303;51.960;8.372;2022-09-12T17:21:18;1.70;;;1.60;;
20287;SDS011;10303;51.960;8.372;2022-09-12T17:24:15;1.67;;;1.58;;
20287;SDS011;10303;51.960;8.372;2022-09-12T17:26:43;1.63;;;1.52;;
20287;SDS011;10303;51.960;8.372;2022-09-12T17:29:10;1.83;;;1.73;;
20287;SDS011;10303;51.960;8.372;2022-09-12T17:31:38;1.50;;;1.40;;
20287;SDS011;10303;51.960;8.372;2022-09-12T17:34:06;1.92;;;1.80;;
20287;SDS011;10303;51.960;8.372;2022-09-12T17:36:33;1.25;;;1.15;;
20287;SDS011;10303;51.960;8.372;2022-09-12T17:39:00;1.67;;;1.58;;
20287;SDS011;10303;51.960;8.372;2022-09-12T17:41:28;2.45;;;1.60;;
20287;SDS011;10303;51.960;8.372;2022-09-12T17:43:59;1.83;;;1.73;;
20287;SDS011;10303;51.960;8.372;2022-09-12T17:46:31;1.88;;;1.77;;
20287;SDS011;10303;51.960;8.372;2022-09-12T17:49:02;2.08;;;1.98;;
20287;SDS011;10303;51.960;8.372;2022-09-12T17:51:34;1.85;;;1.75;;
20287;SDS011;10303;51.960;8.372;2022-09-12T17:54:11;2.88;;;2.33;;
20287;SDS011;10303;51.960;8.372;2022-09-12T17:56:43;1.67;;;1.50;;
20287;SDS011;10303;51.960;8.372;2022-09-12T18:42:29;1.60;;;1.50;;
20287;SDS011;10303;51.960;8.372;2022-09-12T18:45:23;1.50;;;1.40;;
20287;SDS011;10303;51.960;8.372;2022-09-12T18:53:31;1.90;;;1.73;;
20287;SDS011;10303;51.960;8.372;2022-09-12T19:09:40;1.52;;;1.42;;
20287;SDS011;10303;51.960;8.372;2022-09-12T19:16:25;2.03;;;1.63;;
20287;SDS011;10303;51.960;8.372;2022-09-12T19:19:06;3.45;;;1.80;;
20287;SDS011;10303;51.960;8.372;2022-09-12T19:25:38;1.60;;;1.50;;
20287;SDS011;10303;51.960;8.372;2022-09-12T19:28:06;2.20;;;1.80;;
20287;SDS011;10303;51.960;8.372;2022-09-12T19:30:36;1.63;;;1.53;;
20287;SDS011;10303;51.960;8.372;2022-09-12T19:33:14;1.37;;;1.20;;
20287;SDS011;10303;51.960;8.372;2022-09-12T19:35:40;1.63;;;1.50;;
20287;SDS011;10303;51.960;8.372;2022-09-12T19:38:07;1.77;;;1.67;;